createdAt,value
2022-11-14T00:00:28.030Z,99437.22
2022-11-14T00:02:55.021Z,99426.06
2022-11-14T00:05:22.033Z,99416.63
2022-11-14T00:07:48.574Z,99410.53
2022-11-14T00:10:15.714Z,99395.09
2022-11-14T00:12:42.527Z,99385.66
2022-11-14T00:15:10.715Z,99388.28
2022-11-14T00:17:37.982Z,99378.84
2022-11-14T00:20:06.248Z,99386.59
2022-11-14T00:22:32.788Z,99380.53
2022-11-14T00:24:59.767Z,99382.22
2022-11-14T00:27:26.373Z,99384.00
2022-11-14T00:29:53.138Z,99369.34
2022-11-14T00:32:20.202Z,99357.31
2022-11-14T00:34:46.744Z,99355.66
2022-11-14T00:37:13.274Z,99342.69
2022-11-14T00:39:39.806Z,99335.81
2022-11-14T00:42:06.755Z,99341.88
2022-11-14T00:44:33.309Z,99329.81
2022-11-14T00:46:59.771Z,99330.69
2022-11-14T00:49:26.333Z,99332.44
2022-11-14T00:51:52.854Z,99334.16
2022-11-14T00:54:19.330Z,99337.59
2022-11-14T00:56:45.811Z,99349.63
2022-11-14T00:59:12.982Z,99352.19
2022-11-14T01:01:39.509Z,99344.44
2022-11-14T01:04:05.991Z,99343.56
2022-11-14T01:06:32.481Z,99341.84
2022-11-14T01:08:58.995Z,99334.97
2022-11-14T01:11:25.513Z,99341.00
2022-11-14T01:13:52.135Z,99337.63
2022-11-14T01:16:20.030Z,99345.34
2022-11-14T01:18:46.513Z,99352.16
2022-11-14T01:21:14.289Z,99347.03
2022-11-14T01:23:40.939Z,99341.88
2022-11-14T01:26:14.653Z,99339.28
2022-11-14T01:28:41.671Z,99347.91
2022-11-14T01:31:20.474Z,99349.59
2022-11-14T01:33:51.277Z,99346.94
2022-11-14T01:36:19.066Z,99334.06
2022-11-14T01:38:46.033Z,99331.50
2022-11-14T01:41:14.907Z,99337.50
2022-11-14T01:43:41.905Z,99340.09
2022-11-14T01:46:23.896Z,99341.84
2022-11-14T01:48:57.630Z,99351.28
2022-11-14T01:51:29.768Z,99353.00
2022-11-14T01:53:58.839Z,99359.00
2022-11-14T01:56:40.462Z,99358.13
2022-11-14T01:59:11.130Z,99366.69
2022-11-14T02:01:46.175Z,99358.13
2022-11-14T02:04:17.776Z,99351.22
2022-11-14T02:06:46.727Z,99352.13
2022-11-14T02:09:13.437Z,99348.63
2022-11-14T02:11:43.457Z,99349.50
2022-11-14T02:14:10.383Z,99345.16
2022-11-14T02:16:39.441Z,99340.88
2022-11-14T02:19:06.364Z,99338.31
2022-11-14T02:21:32.933Z,99343.47
2022-11-14T02:23:59.448Z,99333.09
2022-11-14T02:26:26.057Z,99329.75
2022-11-14T02:28:53.358Z,99317.69
2022-11-14T02:31:19.846Z,99310.75
2022-11-14T02:33:46.330Z,99297.09
2022-11-14T02:36:12.848Z,99299.59
2022-11-14T02:38:39.364Z,99297.03
2022-11-14T02:41:05.834Z,99298.75
2022-11-14T02:43:32.367Z,99308.16
2022-11-14T02:46:02.887Z,99308.22
2022-11-14T02:48:32.327Z,99309.03
2022-11-14T02:50:59.051Z,99315.06
2022-11-14T02:53:25.716Z,99312.44
2022-11-14T02:55:52.212Z,99321.97
2022-11-14T02:58:19.337Z,99327.91
2022-11-14T03:01:13.628Z,99327.13
2022-11-14T03:03:32.519Z,99333.06
2022-11-14T03:06:00.552Z,99326.19
2022-11-14T03:08:27.888Z,99314.25
2022-11-14T03:10:55.036Z,99325.44
2022-11-14T03:13:21.944Z,99325.44
2022-11-14T03:15:48.783Z,99329.78
2022-11-14T03:18:15.576Z,99326.34
2022-11-14T03:20:42.064Z,99325.44
2022-11-14T03:23:08.682Z,99327.22
2022-11-14T03:25:35.252Z,99328.09
2022-11-14T03:28:01.704Z,99328.03
2022-11-14T03:30:28.230Z,99328.09
2022-11-14T03:32:56.644Z,99331.47
2022-11-14T03:35:23.993Z,99325.53
2022-11-14T03:37:53.918Z,99322.13
2022-11-14T03:40:22.914Z,99325.53
2022-11-14T03:42:49.440Z,99317.84
2022-11-14T03:45:16.021Z,99315.28
2022-11-14T03:47:42.530Z,99311.84
2022-11-14T03:50:09.189Z,99311.84
2022-11-14T03:52:35.665Z,99311.00
2022-11-14T03:55:02.157Z,99312.72
2022-11-14T03:57:28.642Z,99323.91
2022-11-14T03:59:55.169Z,99320.47
2022-11-14T04:02:21.660Z,99325.63
2022-11-14T04:04:48.196Z,99322.22
2022-11-14T04:07:14.744Z,99321.34
2022-11-14T04:09:41.402Z,99333.41
2022-11-14T04:12:11.330Z,99342.84
2022-11-14T04:14:41.988Z,99342.84
2022-11-14T04:17:08.556Z,99337.75
2022-11-14T04:19:35.121Z,99341.16
2022-11-14T04:22:01.676Z,99345.50
2022-11-14T04:24:28.169Z,99348.00
2022-11-14T04:26:54.723Z,99347.19
2022-11-14T04:29:21.196Z,99334.28
2022-11-14T04:31:47.713Z,99334.25
2022-11-14T04:34:14.237Z,99326.56
2022-11-14T04:36:40.774Z,99311.03
2022-11-14T04:39:07.323Z,99303.28
2022-11-14T04:41:33.913Z,99299.03
2022-11-14T04:44:00.516Z,99307.66
2022-11-14T04:46:27.017Z,99313.69
2022-11-14T04:48:53.642Z,99305.03
2022-11-14T04:51:20.229Z,99318.81
2022-11-14T04:53:46.756Z,99321.41
2022-11-14T04:56:13.270Z,99321.41
2022-11-14T04:58:39.899Z,99336.88
2022-11-14T05:01:10.634Z,99335.13
2022-11-14T05:03:37.229Z,99342.91
2022-11-14T05:06:04.273Z,99351.53
2022-11-14T05:08:30.936Z,99351.53
2022-11-14T05:10:57.668Z,99352.34
2022-11-14T05:13:24.153Z,99361.84
2022-11-14T05:15:50.939Z,99365.25
2022-11-14T05:18:17.612Z,99362.66
2022-11-14T05:20:44.282Z,99354.88
2022-11-14T05:23:20.278Z,99351.44
2022-11-14T05:25:47.353Z,99361.78
2022-11-14T05:28:14.223Z,99363.50
2022-11-14T05:30:40.734Z,99363.47
2022-11-14T05:33:07.204Z,99363.41
2022-11-14T05:35:33.721Z,99360.81
2022-11-14T05:38:03.033Z,99366.84
2022-11-14T05:40:29.563Z,99364.28
2022-11-14T05:42:56.857Z,99363.34
2022-11-14T05:45:23.388Z,99365.06
2022-11-14T05:47:51.648Z,99354.75
2022-11-14T05:50:18.125Z,99362.50
2022-11-14T05:52:44.670Z,99359.84
2022-11-14T05:55:11.158Z,99350.44
2022-11-14T05:57:37.972Z,99367.66
2022-11-14T06:00:05.714Z,99369.31
2022-11-14T06:02:32.269Z,99366.69
2022-11-14T06:04:58.894Z,99360.72
2022-11-14T06:07:25.481Z,99352.91
2022-11-14T06:09:52.010Z,99356.38
2022-11-14T06:12:18.664Z,99356.44
2022-11-14T06:14:45.191Z,99353.88
2022-11-14T06:17:11.795Z,99354.75
2022-11-14T06:19:38.294Z,99355.56
2022-11-14T06:22:05.195Z,99357.25
2022-11-14T06:24:31.771Z,99347.84
2022-11-14T06:26:58.804Z,99364.16
2022-11-14T06:29:25.320Z,99360.75
2022-11-14T06:31:51.801Z,99359.91
2022-11-14T06:34:18.284Z,99355.59
2022-11-14T06:36:44.783Z,99352.09
2022-11-14T06:39:11.244Z,99338.41
2022-11-14T06:41:37.757Z,99340.09
2022-11-14T06:44:04.337Z,99338.41
2022-11-14T06:46:31.132Z,99337.50
2022-11-14T06:48:57.640Z,99335.81
2022-11-14T06:51:24.205Z,99334.94
2022-11-14T06:53:50.715Z,99342.69
2022-11-14T06:56:18.486Z,99355.56
2022-11-14T06:58:47.471Z,99355.63
2022-11-14T07:01:17.167Z,99359.09
2022-11-14T07:03:44.669Z,99368.47
2022-11-14T07:06:14.198Z,99375.34
2022-11-14T07:08:40.744Z,99375.31
2022-11-14T07:11:22.695Z,99366.69
2022-11-14T07:13:50.996Z,99370.13
2022-11-14T07:16:17.891Z,99373.56
2022-11-14T07:18:44.867Z,99365.84
2022-11-14T07:21:14.544Z,99371.81
2022-11-14T07:23:41.827Z,99378.72
2022-11-14T07:26:10.865Z,99376.97
2022-11-14T07:28:40.440Z,99366.66
2022-11-14T07:31:09.439Z,99364.91
2022-11-14T07:33:36.257Z,99359.81
2022-11-14T07:36:03.731Z,99359.84
2022-11-14T07:38:35.171Z,99351.31
2022-11-14T07:41:07.557Z,99365.88
2022-11-14T07:43:34.966Z,99360.78
2022-11-14T07:46:06.825Z,99375.38
2022-11-14T07:48:34.695Z,99358.25
2022-11-14T07:51:03.219Z,99361.72
2022-11-14T07:53:30.481Z,99370.31
2022-11-14T07:56:01.980Z,99372.03
2022-11-14T07:58:28.774Z,99363.47
2022-11-14T08:00:55.597Z,99371.19
2022-11-14T08:03:22.786Z,99367.75
2022-11-14T08:05:49.425Z,99363.47
2022-11-14T08:08:16.038Z,99356.63
2022-11-14T08:10:42.755Z,99362.66
2022-11-14T08:13:31.072Z,99373.03
2022-11-14T08:15:59.930Z,99377.31
2022-11-14T08:18:26.917Z,99372.16
2022-11-14T08:20:54.296Z,99366.19
2022-11-14T08:23:20.804Z,99364.50
2022-11-14T08:25:47.381Z,99370.53
2022-11-14T08:28:14.001Z,99377.47
2022-11-14T08:30:40.588Z,99380.03
2022-11-14T08:33:07.601Z,99389.53
2022-11-14T08:35:34.437Z,99386.06
2022-11-14T08:38:02.062Z,99386.13
2022-11-14T08:40:29.304Z,99387.81
2022-11-14T08:43:01.132Z,99391.28
2022-11-14T08:45:28.862Z,99385.28
2022-11-14T08:47:55.716Z,99399.94
2022-11-14T08:50:22.286Z,99406.84
2022-11-14T08:52:52.217Z,99417.22
2022-11-14T08:55:20.344Z,99424.09
2022-11-14T08:57:49.707Z,99415.47
2022-11-14T09:00:17.395Z,99424.97
2022-11-14T09:02:44.328Z,99429.25
2022-11-14T09:05:11.329Z,99447.38
2022-11-14T09:07:38.820Z,99455.13
2022-11-14T09:10:06.356Z,99455.13
2022-11-14T09:12:33.078Z,99472.34
2022-11-14T09:14:59.779Z,99477.53
2022-11-14T09:17:26.671Z,99480.97
2022-11-14T09:19:54.044Z,99499.97
2022-11-14T09:22:20.596Z,99529.28
2022-11-14T09:24:47.768Z,99559.44
2022-11-14T09:27:14.399Z,99591.41
2022-11-14T09:29:41.142Z,99597.38
2022-11-14T09:32:07.919Z,99606.03
2022-11-14T09:34:35.208Z,99617.25
2022-11-14T09:37:01.791Z,99633.66
2022-11-14T09:39:28.398Z,99650.91
2022-11-14T09:42:17.320Z,99660.38
2022-11-14T09:45:06.661Z,99664.72
2022-11-14T09:47:41.435Z,99681.97
2022-11-14T09:50:13.361Z,99691.44
2022-11-14T09:52:47.591Z,99695.72
2022-11-14T09:55:17.701Z,99702.63
2022-11-14T09:57:45.937Z,99716.44
2022-11-14T10:00:24.684Z,99716.44
2022-11-14T10:03:30.320Z,99704.34
2022-11-14T10:06:18.915Z,99711.31
2022-11-14T10:09:16.503Z,99715.66
2022-11-14T10:12:07.783Z,99719.09
2022-11-14T10:14:54.116Z,99738.09
2022-11-14T10:17:23.540Z,99746.72
2022-11-14T10:19:57.451Z,99749.28
2022-11-14T10:23:01.743Z,99766.56
2022-11-14T10:25:46.767Z,99767.47
2022-11-14T10:28:13.397Z,99778.72
2022-11-14T10:30:51.963Z,99778.72
2022-11-14T10:33:32.333Z,99765.72
2022-11-14T10:36:37.410Z,99766.56
2022-11-14T10:39:24.675Z,99770.91
2022-11-14T10:41:58.885Z,99774.34
2022-11-14T10:44:34.467Z,99771.75
2022-11-14T10:47:10.418Z,99769.16
2022-11-14T10:49:37.652Z,99772.63
2022-11-14T10:52:14.985Z,99776.97
2022-11-14T10:54:46.523Z,99784.69
2022-11-14T10:57:19.719Z,99781.22
2022-11-14T10:59:47.371Z,99776.06
2022-11-14T11:02:14.952Z,99772.59
2022-11-14T11:04:44.037Z,99757.06
2022-11-14T11:07:30.598Z,99759.59
2022-11-14T11:10:20.021Z,99751.84
2022-11-14T11:12:49.941Z,99753.59
2022-11-14T11:15:26.546Z,99742.31
2022-11-14T11:18:23.328Z,99739.75
2022-11-14T11:21:11.950Z,99716.44
2022-11-14T11:23:56.615Z,99693.19
2022-11-14T11:26:26.026Z,99675.06
2022-11-14T11:29:16.612Z,99663.03
2022-11-14T11:31:50.300Z,99631.97
2022-11-14T11:34:25.190Z,99615.59
2022-11-14T11:37:00.426Z,99629.41
2022-11-14T11:39:32.002Z,99643.19
2022-11-14T11:42:10.141Z,99644.94
2022-11-14T11:44:46.966Z,99655.28
2022-11-14T11:47:18.022Z,99672.56
2022-11-14T11:49:54.543Z,99672.53
2022-11-14T11:52:28.269Z,99676.88
2022-11-14T11:55:09.627Z,99679.47
2022-11-14T11:57:42.683Z,99676.88
2022-11-14T12:00:19.122Z,99688.97
2022-11-14T12:02:50.031Z,99705.34
2022-11-14T12:05:25.722Z,99713.13
2022-11-14T12:08:04.460Z,99713.09
2022-11-14T12:10:36.246Z,99701.88
2022-11-14T12:13:18.686Z,99708.78
2022-11-14T12:16:13.550Z,99710.50
2022-11-14T12:18:40.909Z,99721.75
2022-11-14T12:21:33.259Z,99722.63
2022-11-14T12:24:06.621Z,99720.91
2022-11-14T12:26:48.418Z,99720.91
2022-11-14T12:29:21.200Z,99722.63
2022-11-14T12:31:58.777Z,99720.03
2022-11-14T12:34:31.115Z,99712.25
2022-11-14T12:36:58.510Z,99720.88
2022-11-14T12:39:28.050Z,99722.63
2022-11-14T12:42:03.799Z,99730.38
2022-11-14T12:44:30.564Z,99736.44
2022-11-14T12:47:27.326Z,99738.16
2022-11-14T12:49:53.787Z,99741.63
2022-11-14T12:52:46.182Z,99734.69
2022-11-14T12:55:18.481Z,99710.50
2022-11-14T12:57:48.947Z,99688.91
2022-11-14T13:00:18.165Z,99676.81
2022-11-14T13:03:04.169Z,99659.59
2022-11-14T13:05:46.802Z,99656.97
2022-11-14T13:08:51.884Z,99638.84
2022-11-14T13:11:59.191Z,99633.72
2022-11-14T13:14:45.078Z,99610.41
2022-11-14T13:17:43.435Z,99612.97
2022-11-14T13:20:40.997Z,99600.88
2022-11-14T13:23:28.129Z,99550.06
2022-11-14T13:26:10.181Z,99486.22
2022-11-14T13:28:52.910Z,99456.06
2022-11-14T13:31:22.561Z,99432.78
2022-11-14T13:33:50.285Z,99443.13
2022-11-14T13:36:48.486Z,99447.41
2022-11-14T13:39:18.559Z,99465.47
2022-11-14T13:41:54.083Z,99494.78
2022-11-14T13:44:45.024Z,99494.78
2022-11-14T13:47:34.438Z,99502.47
2022-11-14T13:50:28.369Z,99500.78
2022-11-14T13:52:55.520Z,99493.00
2022-11-14T13:55:28.053Z,99472.34
2022-11-14T13:58:03.936Z,99490.41
2022-11-14T14:01:03.161Z,99495.56
2022-11-14T14:03:40.353Z,99502.44
2022-11-14T14:06:26.302Z,99493.81
2022-11-14T14:09:50.413Z,99479.22
2022-11-14T14:12:33.016Z,99491.22
2022-11-14T14:15:14.874Z,99504.13
2022-11-14T14:17:56.563Z,99501.56
2022-11-14T14:20:52.063Z,99536.81
2022-11-14T14:23:37.207Z,99551.50
2022-11-14T14:26:06.718Z,99529.13
2022-11-14T14:28:42.445Z,99531.72
2022-11-14T14:31:16.185Z,99526.53
2022-11-14T14:33:48.058Z,99533.41
2022-11-14T14:36:22.243Z,99540.28
2022-11-14T14:38:49.989Z,99535.94
2022-11-14T14:41:19.041Z,99532.56
2022-11-14T14:43:55.908Z,99560.06
2022-11-14T14:46:29.183Z,99553.19
2022-11-14T14:48:56.929Z,99574.59
2022-11-14T14:51:36.165Z,99573.78
2022-11-14T14:54:02.782Z,99582.34
2022-11-14T14:56:29.309Z,99585.88
2022-11-14T14:58:57.042Z,99591.81
2022-11-14T15:01:31.683Z,99575.34
2022-11-14T15:04:03.841Z,99572.00
2022-11-14T15:06:34.582Z,99574.53
2022-11-14T15:09:09.077Z,99565.16
2022-11-14T15:11:39.879Z,99575.38
2022-11-14T15:14:10.644Z,99578.00
2022-11-14T15:16:37.569Z,99577.13
2022-11-14T15:19:04.930Z,99571.97
2022-11-14T15:21:31.604Z,99567.59
2022-11-14T15:24:15.950Z,99563.25
2022-11-14T15:26:47.737Z,99553.75
2022-11-14T15:29:21.485Z,99552.91
2022-11-14T15:31:51.594Z,99550.31
2022-11-14T15:34:27.830Z,99534.78
2022-11-14T15:37:06.620Z,99541.72
2022-11-14T15:39:33.182Z,99537.44
2022-11-14T15:42:15.203Z,99552.94
2022-11-14T15:44:46.807Z,99549.41
2022-11-14T15:47:18.340Z,99543.38
2022-11-14T15:50:14.192Z,99542.50
2022-11-14T15:52:49.049Z,99528.72
2022-11-14T15:55:21.301Z,99532.19
2022-11-14T15:57:55.836Z,99523.56
2022-11-14T16:00:33.465Z,99528.78
2022-11-14T16:03:00.845Z,99540.00
2022-11-14T16:05:31.022Z,99560.59
2022-11-14T16:07:57.925Z,99544.25
2022-11-14T16:10:26.738Z,99533.97
2022-11-14T16:12:53.812Z,99533.00
2022-11-14T16:15:21.730Z,99523.56
2022-11-14T16:17:50.074Z,99520.09
2022-11-14T16:20:21.938Z,99517.56
2022-11-14T16:22:50.093Z,99512.25
2022-11-14T16:25:32.059Z,99498.63
2022-11-14T16:27:58.613Z,99490.88
2022-11-14T16:30:26.245Z,99488.25
2022-11-14T16:32:53.073Z,99489.22
2022-11-14T16:35:22.325Z,99496.94
2022-11-14T16:37:49.541Z,99492.75
2022-11-14T16:40:33.929Z,99517.66
2022-11-14T16:43:01.471Z,99517.47
2022-11-14T16:45:29.548Z,99490.81
2022-11-14T16:47:56.098Z,99507.97
2022-11-14T16:50:22.573Z,99490.72
2022-11-14T16:52:49.277Z,99489.81
2022-11-14T16:55:15.979Z,99525.22
2022-11-14T16:57:42.638Z,99575.13
2022-11-14T17:00:12.458Z,99592.25
2022-11-14T17:02:42.465Z,99607.44
2022-11-14T17:05:09.078Z,99600.56
2022-11-14T17:07:35.637Z,99611.72
2022-11-14T17:10:02.396Z,99599.59
2022-11-14T17:12:29.312Z,99596.09
2022-11-14T17:14:55.895Z,99564.41
2022-11-14T17:17:22.515Z,99560.00
2022-11-14T17:19:49.797Z,99559.16
2022-11-14T17:22:18.211Z,99536.75
2022-11-14T17:24:44.882Z,99526.41
2022-11-14T17:27:13.019Z,99539.41
2022-11-14T17:29:39.887Z,99545.50
2022-11-14T17:32:06.527Z,99564.31
2022-11-14T17:34:33.113Z,99581.59
2022-11-14T17:36:59.680Z,99601.38
2022-11-14T17:39:26.361Z,99592.41
2022-11-14T17:41:53.244Z,99575.34
2022-11-14T17:44:19.764Z,99587.41
2022-11-14T17:46:47.661Z,99604.59
2022-11-14T17:49:14.176Z,99624.38
2022-11-14T17:51:40.722Z,99607.91
2022-11-14T17:54:07.516Z,99618.16
2022-11-14T17:56:34.182Z,99613.03
2022-11-14T17:59:00.721Z,99622.47
2022-11-14T18:01:28.668Z,99630.97
2022-11-14T18:03:57.577Z,99636.94
2022-11-14T18:06:27.215Z,99644.78
2022-11-14T18:08:54.345Z,99669.00
2022-11-14T18:11:20.988Z,99658.50
2022-11-14T18:13:47.598Z,99653.41
2022-11-14T18:16:19.615Z,99647.44
2022-11-14T18:18:46.215Z,99646.38
2022-11-14T18:21:17.617Z,99626.66
2022-11-14T18:23:44.568Z,99617.81
2022-11-14T18:26:13.157Z,99601.69
2022-11-14T18:28:39.846Z,99616.28
2022-11-14T18:31:10.160Z,99612.78
2022-11-14T18:33:41.223Z,99611.22
2022-11-14T18:36:11.709Z,99616.38
2022-11-14T18:38:39.038Z,99614.53
2022-11-14T18:41:20.858Z,99604.09
2022-11-14T18:43:47.993Z,99587.09
2022-11-14T18:46:17.034Z,99594.72
2022-11-14T18:48:46.890Z,99592.06
2022-11-14T18:51:17.039Z,99598.19
2022-11-14T18:53:43.580Z,99613.75
2022-11-14T18:56:21.107Z,99627.31
2022-11-14T18:58:47.881Z,99605.69
2022-11-14T19:01:24.957Z,99596.22
2022-11-14T19:03:52.639Z,99587.66
2022-11-14T19:06:19.581Z,99588.47
2022-11-14T19:08:46.354Z,99579.84
2022-11-14T19:11:33.657Z,99585.91
2022-11-14T19:14:05.987Z,99590.22
2022-11-14T19:16:34.478Z,99582.38
2022-11-14T19:19:01.715Z,99569.41
2022-11-14T19:21:29.149Z,99568.56
2022-11-14T19:23:55.862Z,99565.97
2022-11-14T19:26:23.277Z,99561.63
2022-11-14T19:28:50.099Z,99553.91
2022-11-14T19:31:17.803Z,99544.44
2022-11-14T19:33:47.692Z,99530.72
2022-11-14T19:36:44.903Z,99529.75
2022-11-14T19:39:07.284Z,99515.91
2022-11-14T19:41:33.832Z,99498.69
2022-11-14T19:44:02.069Z,99486.78
2022-11-14T19:46:31.538Z,99494.59
2022-11-14T19:48:59.776Z,99490.22
2022-11-14T19:51:27.333Z,99485.91
2022-11-14T19:53:55.237Z,99477.25
2022-11-14T19:56:23.464Z,99480.72
2022-11-14T19:58:51.736Z,99461.03
2022-11-14T20:01:22.554Z,99458.44
2022-11-14T20:03:57.200Z,99451.56
2022-11-14T20:06:34.747Z,99459.31
2022-11-14T20:09:05.640Z,99461.81
2022-11-14T20:11:32.292Z,99467.94
2022-11-14T20:13:59.921Z,99466.22
2022-11-14T20:16:29.223Z,99469.69
2022-11-14T20:18:59.391Z,99474.03
2022-11-14T20:21:28.018Z,99473.25
2022-11-14T20:23:54.674Z,99472.44
2022-11-14T20:26:22.284Z,99483.56
2022-11-14T20:28:52.155Z,99481.00
2022-11-14T20:31:21.112Z,99482.69
2022-11-14T20:33:49.464Z,99476.59
2022-11-14T20:36:18.498Z,99472.44
2022-11-14T20:38:45.477Z,99468.13
2022-11-14T20:41:12.792Z,99476.69
2022-11-14T20:43:40.784Z,99487.84
2022-11-14T20:46:14.676Z,99482.69
2022-11-14T20:48:42.255Z,99483.56
2022-11-14T20:51:21.405Z,99474.09
2022-11-14T20:53:49.177Z,99468.03
2022-11-14T20:56:17.151Z,99451.72
2022-11-14T20:58:45.105Z,99449.13
2022-11-14T21:01:12.797Z,99447.56
2022-11-14T21:03:39.834Z,99459.50
2022-11-14T21:06:07.827Z,99456.91
2022-11-14T21:08:35.983Z,99454.22
2022-11-14T21:11:05.285Z,99443.84
2022-11-14T21:13:54.039Z,99436.97
2022-11-14T21:16:21.307Z,99431.91
2022-11-14T21:18:48.371Z,99423.28
2022-11-14T21:21:19.446Z,99419.84
2022-11-14T21:23:47.374Z,99407.84
2022-11-14T21:26:14.906Z,99404.41
2022-11-14T21:28:43.831Z,99397.50
2022-11-14T21:31:17.641Z,99382.06
2022-11-14T21:33:44.877Z,99384.56
2022-11-14T21:39:00.056Z,99382.06
2022-11-14T21:41:28.740Z,99383.81
2022-11-14T21:43:57.460Z,99391.44
2022-11-14T21:46:25.194Z,99391.44
2022-11-14T21:48:52.214Z,99395.78
2022-11-14T21:51:24.349Z,99385.47
2022-11-14T21:53:55.160Z,99370.09
2022-11-14T21:56:24.421Z,99368.41
2022-11-14T21:59:12.125Z,99372.63
2022-11-14T22:01:58.995Z,99356.31
2022-11-14T22:04:26.421Z,99337.47
2022-11-14T22:06:53.527Z,99328.91
2022-11-14T22:09:20.438Z,99330.56
2022-11-14T22:11:47.066Z,99340.88
2022-11-14T22:14:13.554Z,99340.91
2022-11-14T22:16:40.269Z,99335.75
2022-11-14T22:19:07.052Z,99335.69
2022-11-14T22:21:33.542Z,99326.25
2022-11-14T22:24:00.155Z,99318.50
2022-11-14T22:26:26.694Z,99313.34
2022-11-14T22:28:53.241Z,99312.44
2022-11-14T22:31:22.864Z,99314.97
2022-11-14T22:33:51.794Z,99307.22
2022-11-14T22:36:23.748Z,99305.47
2022-11-14T22:38:52.449Z,99301.16
2022-11-14T22:41:21.360Z,99299.41
2022-11-14T22:43:47.998Z,99277.16
2022-11-14T22:46:16.971Z,99277.16
2022-11-14T22:48:44.912Z,99266.88
2022-11-14T22:51:25.500Z,99258.34
2022-11-14T22:54:00.997Z,99257.47
2022-11-14T22:56:29.135Z,99253.94
2022-11-14T22:58:56.332Z,99231.72
2022-11-14T23:01:31.335Z,99230.84
2022-11-14T23:04:04.378Z,99232.47
2022-11-14T23:06:33.604Z,99235.97
2022-11-14T23:09:01.069Z,99247.88
2022-11-14T23:11:30.030Z,99242.63
2022-11-14T23:13:57.992Z,99238.22
2022-11-14T23:16:27.369Z,99236.53
2022-11-14T23:18:55.781Z,99228.00
2022-11-14T23:21:25.201Z,99226.34
2022-11-14T23:23:57.332Z,99230.72
2022-11-14T23:26:24.978Z,99227.28
2022-11-14T23:28:51.770Z,99223.00
2022-11-14T23:31:19.129Z,99219.59
2022-11-14T23:33:46.772Z,99223.00
2022-11-14T23:36:13.830Z,99217.91
2022-11-14T23:38:40.800Z,99213.59
2022-11-14T23:41:07.416Z,99219.72
2022-11-14T23:43:34.297Z,99220.50
2022-11-14T23:46:01.136Z,99223.13
2022-11-14T23:48:28.185Z,99209.31
2022-11-14T23:50:56.632Z,99200.00
2022-11-14T23:53:23.570Z,99198.31
2022-11-14T23:55:58.626Z,99201.69
2022-11-14T23:58:26.577Z,99207.63
